Hlavní strana
METAR-TAF:

METAR-TAF

Letiště :

Bolzano, Itálie

zeměpisná šířka: 46-28N, zeměpisná délka: 011-20E, výška: 262 m

Aktuální stav počasí

Zpráva byla vytvořena před 26 minutami, v 20:50 UTC
Jihojihovýchodní vítr 4 kt, proměnlivý mezi jihovýchodním a jižním
Teplota 24°C
Vlhkost vzduchu 57%
Tlak 1019 hPa
Viditelnost 10 km a více
Polojasno ve výšce 10000 ft

METAR: LIPB 262050Z 16004KT 130V190 9999 SCT100 24/15 Q1019

Čas: 23:16 (21:16 UTC)

Předpověď počasí

Zpráva byla vytvořena před 4 hodinami a 16 minutami, v 17:00 UTC
Předpověď platná od 26 v 18 UTC do 27 v 18 UTC
vítr z různých směrů 5 kt
Viditelnost 10 km a více
Polojasno ve výšce 4000 ft
Dočasný
od 27 v 12 UTC do 27 v 18 UTC
bouřka, déšť

TAF: LIPB 261700Z 2618/2718 VRB05KT 9999 SCT040 TEMPO 2712/2718 TSRA

Stav a předpovědi počasí z více než 4 000 letišť (zprávy METAR a TAF).

Červené a žluté tečky na mapě představují dostupné meteorologické stanice.

Když kurzor umístíte na tečku, zobrazí se název stanice.

Pak kliknutím zobrazíte stav a předpověď počasí.

Chcete-li změnit mapu, kliknutím na zelené tlačítko se znaménkem +mapu přiblížíte, kliknutím na zelené tlačítko se znaménkem – mapu oddálíte a kliknutím na zelené šipky přejdete na sousední mapy.


METAR-TAF: